sensor_id;sensor_type;location;lat;lon;timestamp;temperature;humidity
9915;DHT22;4996;48.746;9.174;2023-03-25T00:01:57;9.70;99.90
9915;DHT22;4996;48.746;9.174;2023-03-25T00:10:20;8.80;99.90
9915;DHT22;4996;48.746;9.174;2023-03-25T00:12:45;8.80;99.90
9915;DHT22;4996;48.746;9.174;2023-03-25T00:15:12;8.80;99.90
9915;DHT22;4996;48.746;9.174;2023-03-25T00:17:37;8.80;99.90
9915;DHT22;4996;48.746;9.174;2023-03-25T00:20:05;8.90;99.90
9915;DHT22;4996;48.746;9.174;2023-03-25T00:22:33;8.90;99.90
9915;DHT22;4996;48.746;9.174;2023-03-25T00:25:00;9.00;99.90
9915;DHT22;4996;48.746;9.174;2023-03-25T00:27:26;9.10;99.90
9915;DHT22;4996;48.746;9.174;2023-03-25T00:29:51;9.00;99.90
9915;DHT22;4996;48.746;9.174;2023-03-25T00:32:17;9.10;99.90
9915;DHT22;4996;48.746;9.174;2023-03-25T00:34:45;9.00;99.90
9915;DHT22;4996;48.746;9.174;2023-03-25T00:37:13;9.00;99.90
9915;DHT22;4996;48.746;9.174;2023-03-25T00:39:42;8.90;99.90
9915;DHT22;4996;48.746;9.174;2023-03-25T00:42:08;8.90;99.90
9915;DHT22;4996;48.746;9.174;2023-03-25T00:44:36;9.00;99.90
9915;DHT22;4996;48.746;9.174;2023-03-25T00:47:01;9.00;99.90
9915;DHT22;4996;48.746;9.174;2023-03-25T00:49:27;9.10;99.90
9915;DHT22;4996;48.746;9.174;2023-03-25T00:51:54;8.90;99.90
9915;DHT22;4996;48.746;9.174;2023-03-25T00:54:21;8.90;99.90
9915;DHT22;4996;48.746;9.174;2023-03-25T00:56:47;8.70;99.90
9915;DHT22;4996;48.746;9.174;2023-03-25T00:59:13;8.70;99.90
9915;DHT22;4996;48.746;9.174;2023-03-25T01:01:38;8.60;99.90
9915;DHT22;4996;48.746;9.174;2023-03-25T01:04:05;8.70;99.90
9915;DHT22;4996;48.746;9.174;2023-03-25T01:06:39;8.70;99.90
9915;DHT22;4996;48.746;9.174;2023-03-25T01:09:11;8.70;99.90
9915;DHT22;4996;48.746;9.174;2023-03-25T01:11:39;8.70;99.90
9915;DHT22;4996;48.746;9.174;2023-03-25T01:14:07;8.90;99.90
9915;DHT22;4996;48.746;9.174;2023-03-25T01:16:33;9.00;99.90
9915;DHT22;4996;48.746;9.174;2023-03-25T01:18:59;9.10;99.90
9915;DHT22;4996;48.746;9.174;2023-03-25T01:21:25;9.00;99.90
9915;DHT22;4996;48.746;9.174;2023-03-25T01:23:50;8.80;99.90
9915;DHT22;4996;48.746;9.174;2023-03-25T01:26:16;9.00;99.90
9915;DHT22;4996;48.746;9.174;2023-03-25T01:28:43;8.90;99.90
9915;DHT22;4996;48.746;9.174;2023-03-25T01:31:11;9.00;99.90
9915;DHT22;4996;48.746;9.174;2023-03-25T01:33:38;9.10;99.90
9915;DHT22;4996;48.746;9.174;2023-03-25T01:36:05;9.10;99.90
9915;DHT22;4996;48.746;9.174;2023-03-25T01:38:39;9.10;99.90
9915;DHT22;4996;48.746;9.174;2023-03-25T01:41:06;9.10;99.90
9915;DHT22;4996;48.746;9.174;2023-03-25T01:43:32;9.10;99.90
9915;DHT22;4996;48.746;9.174;2023-03-25T01:45:58;9.10;99.90
9915;DHT22;4996;48.746;9.174;2023-03-25T01:48:35;9.10;99.90
9915;DHT22;4996;48.746;9.174;2023-03-25T01:51:19;9.00;99.90
9915;DHT22;4996;48.746;9.174;2023-03-25T01:53:46;9.00;99.90
9915;DHT22;4996;48.746;9.174;2023-03-25T01:56:15;8.80;99.90
9915;DHT22;4996;48.746;9.174;2023-03-25T01:58:43;8.90;99.90
9915;DHT22;4996;48.746;9.174;2023-03-25T02:01:09;8.90;99.90
9915;DHT22;4996;48.746;9.174;2023-03-25T02:03:41;8.80;99.90
9915;DHT22;4996;48.746;9.174;2023-03-25T02:06:16;8.90;99.90
9915;DHT22;4996;48.746;9.174;2023-03-25T02:08:44;8.90;99.90
9915;DHT22;4996;48.746;9.174;2023-03-25T02:11:11;8.80;99.90
9915;DHT22;4996;48.746;9.174;2023-03-25T02:13:38;8.70;99.90
9915;DHT22;4996;48.746;9.174;2023-03-25T02:16:36;8.70;99.90
9915;DHT22;4996;48.746;9.174;2023-03-25T02:19:33;8.80;99.90
9915;DHT22;4996;48.746;9.174;2023-03-25T02:22:32;8.80;99.90
9915;DHT22;4996;48.746;9.174;2023-03-25T02:25:20;8.90;99.90
9915;DHT22;4996;48.746;9.174;2023-03-25T02:33:31;8.90;99.90
9915;DHT22;4996;48.746;9.174;2023-03-25T02:41:49;8.80;99.90
9915;DHT22;4996;48.746;9.174;2023-03-25T02:46:56;8.60;99.90
9915;DHT22;4996;48.746;9.174;2023-03-25T02:49:32;8.30;99.90
9915;DHT22;4996;48.746;9.174;2023-03-25T02:52:27;8.00;99.90
9915;DHT22;4996;48.746;9.174;2023-03-25T02:54:56;8.10;99.90
9915;DHT22;4996;48.746;9.174;2023-03-25T02:57:24;8.20;99.90
9915;DHT22;4996;48.746;9.174;2023-03-25T02:59:53;8.40;99.90
9915;DHT22;4996;48.746;9.174;2023-03-25T03:02:24;8.50;99.90
9915;DHT22;4996;48.746;9.174;2023-03-25T03:04:52;8.60;99.90
9915;DHT22;4996;48.746;9.174;2023-03-25T03:07:26;8.50;99.90
9915;DHT22;4996;48.746;9.174;2023-03-25T03:13:00;8.60;99.90
9915;DHT22;4996;48.746;9.174;2023-03-25T03:21:12;8.50;99.90
9915;DHT22;4996;48.746;9.174;2023-03-25T03:23:58;8.40;99.90
9915;DHT22;4996;48.746;9.174;2023-03-25T03:26:53;8.50;99.90
9915;DHT22;4996;48.746;9.174;2023-03-25T03:32:04;8.60;99.90
9915;DHT22;4996;48.746;9.174;2023-03-25T03:34:41;8.60;99.90
9915;DHT22;4996;48.746;9.174;2023-03-25T03:37:11;8.50;99.90
9915;DHT22;4996;48.746;9.174;2023-03-25T03:39:39;8.40;99.90
9915;DHT22;4996;48.746;9.174;2023-03-25T03:44:38;8.20;99.90
9915;DHT22;4996;48.746;9.174;2023-03-25T03:47:09;8.10;99.90
9915;DHT22;4996;48.746;9.174;2023-03-25T03:49:49;8.00;99.90
9915;DHT22;4996;48.746;9.174;2023-03-25T03:52:20;8.00;99.90
9915;DHT22;4996;48.746;9.174;2023-03-25T03:54:57;7.90;99.90
9915;DHT22;4996;48.746;9.174;2023-03-25T03:57:27;7.80;99.90
9915;DHT22;4996;48.746;9.174;2023-03-25T04:00:06;7.70;99.90
9915;DHT22;4996;48.746;9.174;2023-03-25T04:02:58;7.80;99.90
9915;DHT22;4996;48.746;9.174;2023-03-25T04:05:25;7.80;99.90
9915;DHT22;4996;48.746;9.174;2023-03-25T04:08:08;7.80;99.90
9915;DHT22;4996;48.746;9.174;2023-03-25T04:10:42;7.80;99.90
9915;DHT22;4996;48.746;9.174;2023-03-25T04:13:13;7.90;99.90
9915;DHT22;4996;48.746;9.174;2023-03-25T04:15:40;7.90;99.90
9915;DHT22;4996;48.746;9.174;2023-03-25T04:18:07;7.80;99.90
9915;DHT22;4996;48.746;9.174;2023-03-25T04:20:33;7.80;99.90
9915;DHT22;4996;48.746;9.174;2023-03-25T04:23:01;7.80;99.90
9915;DHT22;4996;48.746;9.174;2023-03-25T04:25:29;7.90;99.90
9915;DHT22;4996;48.746;9.174;2023-03-25T04:27:57;7.80;99.90
9915;DHT22;4996;48.746;9.174;2023-03-25T04:30:24;7.80;99.90
9915;DHT22;4996;48.746;9.174;2023-03-25T04:32:50;7.80;99.90
9915;DHT22;4996;48.746;9.174;2023-03-25T04:35:17;7.90;99.90
9915;DHT22;4996;48.746;9.174;2023-03-25T04:37:44;8.10;99.90
9915;DHT22;4996;48.746;9.174;2023-03-25T04:40:13;7.80;99.90
9915;DHT22;4996;48.746;9.174;2023-03-25T04:42:40;7.80;99.90
9915;DHT22;4996;48.746;9.174;2023-03-25T04:45:08;7.60;99.90
9915;DHT22;4996;48.746;9.174;2023-03-25T04:47:39;7.70;99.90
9915;DHT22;4996;48.746;9.174;2023-03-25T04:52:46;7.80;99.90
9915;DHT22;4996;48.746;9.174;2023-03-25T04:55:12;7.90;99.90
9915;DHT22;4996;48.746;9.174;2023-03-25T04:57:43;8.00;99.90
9915;DHT22;4996;48.746;9.174;2023-03-25T05:00:11;8.00;99.90
9915;DHT22;4996;48.746;9.174;2023-03-25T05:02:36;8.00;99.90
9915;DHT22;4996;48.746;9.174;2023-03-25T05:05:07;7.90;99.90
9915;DHT22;4996;48.746;9.174;2023-03-25T05:07:33;7.90;99.90
9915;DHT22;4996;48.746;9.174;2023-03-25T05:09:58;7.70;99.90
9915;DHT22;4996;48.746;9.174;2023-03-25T05:12:24;7.70;99.90
9915;DHT22;4996;48.746;9.174;2023-03-25T05:14:49;7.80;99.90
9915;DHT22;4996;48.746;9.174;2023-03-25T05:17:15;7.90;99.90
9915;DHT22;4996;48.746;9.174;2023-03-25T05:19:40;7.90;99.90
9915;DHT22;4996;48.746;9.174;2023-03-25T05:22:08;7.90;99.90
9915;DHT22;4996;48.746;9.174;2023-03-25T05:24:33;8.00;99.90
9915;DHT22;4996;48.746;9.174;2023-03-25T05:26:59;8.10;99.90
9915;DHT22;4996;48.746;9.174;2023-03-25T05:29:26;8.20;99.90
9915;DHT22;4996;48.746;9.174;2023-03-25T05:31:52;8.30;99.90
9915;DHT22;4996;48.746;9.174;2023-03-25T05:34:18;8.40;99.90
9915;DHT22;4996;48.746;9.174;2023-03-25T05:36:45;8.40;99.90
9915;DHT22;4996;48.746;9.174;2023-03-25T05:39:10;8.40;99.90
9915;DHT22;4996;48.746;9.174;2023-03-25T05:41:36;8.30;99.90
9915;DHT22;4996;48.746;9.174;2023-03-25T05:44:06;8.30;99.90
9915;DHT22;4996;48.746;9.174;2023-03-25T05:46:32;8.10;99.90
9915;DHT22;4996;48.746;9.174;2023-03-25T05:48:58;8.30;99.90
9915;DHT22;4996;48.746;9.174;2023-03-25T05:51:25;8.50;99.90
9915;DHT22;4996;48.746;9.174;2023-03-25T05:53:52;8.40;99.90
9915;DHT22;4996;48.746;9.174;2023-03-25T05:56:19;8.40;99.90
9915;DHT22;4996;48.746;9.174;2023-03-25T05:58:46;8.50;99.90
9915;DHT22;4996;48.746;9.174;2023-03-25T06:01:12;8.50;99.90
9915;DHT22;4996;48.746;9.174;2023-03-25T06:03:39;8.60;99.90
9915;DHT22;4996;48.746;9.174;2023-03-25T06:06:06;8.50;99.90
9915;DHT22;4996;48.746;9.174;2023-03-25T06:08:41;8.50;99.90
9915;DHT22;4996;48.746;9.174;2023-03-25T06:11:08;8.50;99.90
9915;DHT22;4996;48.746;9.174;2023-03-25T06:13:34;8.50;99.90
9915;DHT22;4996;48.746;9.174;2023-03-25T06:16:03;8.50;99.90
9915;DHT22;4996;48.746;9.174;2023-03-25T06:18:30;8.50;99.90
9915;DHT22;4996;48.746;9.174;2023-03-25T06:20:56;8.40;99.90
9915;DHT22;4996;48.746;9.174;2023-03-25T06:23:23;8.40;99.90
9915;DHT22;4996;48.746;9.174;2023-03-25T06:25:49;8.50;99.90
9915;DHT22;4996;48.746;9.174;2023-03-25T06:28:15;8.50;99.90
9915;DHT22;4996;48.746;9.174;2023-03-25T06:30:46;8.40;99.90
9915;DHT22;4996;48.746;9.174;2023-03-25T06:33:13;8.40;99.90
9915;DHT22;4996;48.746;9.174;2023-03-25T06:35:42;8.30;99.90
9915;DHT22;4996;48.746;9.174;2023-03-25T06:38:08;8.20;99.90
9915;DHT22;4996;48.746;9.174;2023-03-25T06:40:37;8.10;99.90
9915;DHT22;4996;48.746;9.174;2023-03-25T06:43:04;8.10;99.90
9915;DHT22;4996;48.746;9.174;2023-03-25T06:45:30;8.20;99.90
9915;DHT22;4996;48.746;9.174;2023-03-25T06:47:55;8.10;99.90
9915;DHT22;4996;48.746;9.174;2023-03-25T06:50:21;8.20;99.90
9915;DHT22;4996;48.746;9.174;2023-03-25T06:52:47;8.50;99.90
9915;DHT22;4996;48.746;9.174;2023-03-25T06:55:12;8.60;99.90
9915;DHT22;4996;48.746;9.174;2023-03-25T06:57:38;8.70;99.90
9915;DHT22;4996;48.746;9.174;2023-03-25T07:00:04;8.70;99.90
9915;DHT22;4996;48.746;9.174;2023-03-25T07:02:30;8.80;99.90
9915;DHT22;4996;48.746;9.174;2023-03-25T07:04:56;9.00;99.90
9915;DHT22;4996;48.746;9.174;2023-03-25T07:07:21;9.00;99.90
9915;DHT22;4996;48.746;9.174;2023-03-25T07:09:56;8.80;99.90
9915;DHT22;4996;48.746;9.174;2023-03-25T07:12:22;8.80;99.90
9915;DHT22;4996;48.746;9.174;2023-03-25T07:14:52;8.90;99.90
9915;DHT22;4996;48.746;9.174;2023-03-25T07:17:18;8.80;99.90
9915;DHT22;4996;48.746;9.174;2023-03-25T07:19:44;8.80;99.90
9915;DHT22;4996;48.746;9.174;2023-03-25T07:22:09;8.90;99.90
9915;DHT22;4996;48.746;9.174;2023-03-25T07:24:35;9.00;99.90
9915;DHT22;4996;48.746;9.174;2023-03-25T07:27:00;8.90;99.90
9915;DHT22;4996;48.746;9.174;2023-03-25T07:29:26;9.10;99.90
9915;DHT22;4996;48.746;9.174;2023-03-25T07:31:51;9.30;99.90
9915;DHT22;4996;48.746;9.174;2023-03-25T07:34:17;9.30;99.90
9915;DHT22;4996;48.746;9.174;2023-03-25T07:36:42;9.20;99.90
9915;DHT22;4996;48.746;9.174;2023-03-25T07:39:08;9.10;99.90
9915;DHT22;4996;48.746;9.174;2023-03-25T07:41:33;9.00;99.90
9915;DHT22;4996;48.746;9.174;2023-03-25T07:43:59;9.00;99.90
9915;DHT22;4996;48.746;9.174;2023-03-25T07:46:25;9.00;99.90
9915;DHT22;4996;48.746;9.174;2023-03-25T07:48:50;8.90;99.90
9915;DHT22;4996;48.746;9.174;2023-03-25T07:51:16;9.20;99.90
9915;DHT22;4996;48.746;9.174;2023-03-25T07:53:41;9.40;99.90
9915;DHT22;4996;48.746;9.174;2023-03-25T07:56:11;9.50;99.90
9915;DHT22;4996;48.746;9.174;2023-03-25T07:58:37;9.70;99.90
9915;DHT22;4996;48.746;9.174;2023-03-25T08:01:03;9.90;99.90
9915;DHT22;4996;48.746;9.174;2023-03-25T08:03:28;10.20;99.90
9915;DHT22;4996;48.746;9.174;2023-03-25T08:05:54;10.30;99.90
9915;DHT22;4996;48.746;9.174;2023-03-25T08:08:20;10.50;99.90
9915;DHT22;4996;48.746;9.174;2023-03-25T08:10:46;10.50;99.90
9915;DHT22;4996;48.746;9.174;2023-03-25T08:13:13;10.30;99.90
9915;DHT22;4996;48.746;9.174;2023-03-25T08:15:39;10.20;99.90
9915;DHT22;4996;48.746;9.174;2023-03-25T08:18:06;10.20;99.90
9915;DHT22;4996;48.746;9.174;2023-03-25T08:20:34;10.20;99.90
9915;DHT22;4996;48.746;9.174;2023-03-25T08:23:00;10.20;99.90
9915;DHT22;4996;48.746;9.174;2023-03-25T08:25:27;10.30;99.90
9915;DHT22;4996;48.746;9.174;2023-03-25T08:27:53;10.10;99.90
9915;DHT22;4996;48.746;9.174;2023-03-25T08:30:19;9.90;99.90
9915;DHT22;4996;48.746;9.174;2023-03-25T08:32:45;10.00;99.90
9915;DHT22;4996;48.746;9.174;2023-03-25T08:35:11;10.00;99.90
9915;DHT22;4996;48.746;9.174;2023-03-25T08:37:36;9.70;99.90
9915;DHT22;4996;48.746;9.174;2023-03-25T08:40:03;9.60;99.90
9915;DHT22;4996;48.746;9.174;2023-03-25T08:42:36;9.60;99.90
9915;DHT22;4996;48.746;9.174;2023-03-25T08:45:03;9.60;99.90
9915;DHT22;4996;48.746;9.174;2023-03-25T08:47:30;9.80;99.90
9915;DHT22;4996;48.746;9.174;2023-03-25T08:49:55;9.60;99.90
9915;DHT22;4996;48.746;9.174;2023-03-25T08:52:21;9.50;99.90
9915;DHT22;4996;48.746;9.174;2023-03-25T08:54:47;9.50;99.90
9915;DHT22;4996;48.746;9.174;2023-03-25T08:57:12;9.50;99.90
9915;DHT22;4996;48.746;9.174;2023-03-25T08:59:38;9.60;99.90
9915;DHT22;4996;48.746;9.174;2023-03-25T09:02:03;9.80;99.90
9915;DHT22;4996;48.746;9.174;2023-03-25T09:04:30;9.70;99.90
9915;DHT22;4996;48.746;9.174;2023-03-25T09:06:55;9.50;99.90
9915;DHT22;4996;48.746;9.174;2023-03-25T09:09:21;9.40;99.90
9915;DHT22;4996;48.746;9.174;2023-03-25T09:11:48;9.20;99.90
9915;DHT22;4996;48.746;9.174;2023-03-25T09:14:13;8.90;99.90
9915;DHT22;4996;48.746;9.174;2023-03-25T09:16:39;8.80;99.90
9915;DHT22;4996;48.746;9.174;2023-03-25T09:19:06;8.80;99.90
9915;DHT22;4996;48.746;9.174;2023-03-25T09:21:32;8.90;99.90
9915;DHT22;4996;48.746;9.174;2023-03-25T09:23:58;8.80;99.90
9915;DHT22;4996;48.746;9.174;2023-03-25T09:26:23;8.90;99.90
9915;DHT22;4996;48.746;9.174;2023-03-25T09:28:50;9.20;99.90
9915;DHT22;4996;48.746;9.174;2023-03-25T09:31:16;9.40;99.90
9915;DHT22;4996;48.746;9.174;2023-03-25T09:33:41;9.30;99.90
9915;DHT22;4996;48.746;9.174;2023-03-25T09:36:07;9.50;99.90
9915;DHT22;4996;48.746;9.174;2023-03-25T09:38:33;9.80;99.90
9915;DHT22;4996;48.746;9.174;2023-03-25T09:41:01;10.00;99.90
9915;DHT22;4996;48.746;9.174;2023-03-25T09:44:18;10.10;99.90
9915;DHT22;4996;48.746;9.174;2023-03-25T09:46:23;10.10;99.90
9915;DHT22;4996;48.746;9.174;2023-03-25T09:48:49;10.40;99.90
9915;DHT22;4996;48.746;9.174;2023-03-25T09:51:23;10.60;99.90
9915;DHT22;4996;48.746;9.174;2023-03-25T09:56:39;10.60;99.90
9915;DHT22;4996;48.746;9.174;2023-03-25T09:59:20;10.70;99.90
9915;DHT22;4996;48.746;9.174;2023-03-25T10:02:11;10.50;99.90
9915;DHT22;4996;48.746;9.174;2023-03-25T10:16:00;11.50;99.90
9915;DHT22;4996;48.746;9.174;2023-03-25T10:24:20;11.70;99.90
9915;DHT22;4996;48.746;9.174;2023-03-25T10:32:25;12.10;99.90
9915;DHT22;4996;48.746;9.174;2023-03-25T10:34:55;12.00;99.90
9915;DHT22;4996;48.746;9.174;2023-03-25T10:37:28;12.20;99.90
9915;DHT22;4996;48.746;9.174;2023-03-25T10:40:32;12.20;99.90
9915;DHT22;4996;48.746;9.174;2023-03-25T10:45:37;12.30;99.90
9915;DHT22;4996;48.746;9.174;2023-03-25T10:48:11;12.40;99.90
9915;DHT22;4996;48.746;9.174;2023-03-25T10:50:39;12.10;99.90
9915;DHT22;4996;48.746;9.174;2023-03-25T10:53:05;12.50;99.90
9915;DHT22;4996;48.746;9.174;2023-03-25T10:55:32;12.50;99.90
9915;DHT22;4996;48.746;9.174;2023-03-25T10:58:00;12.40;99.90
9915;DHT22;4996;48.746;9.174;2023-03-25T11:00:26;12.40;99.90
9915;DHT22;4996;48.746;9.174;2023-03-25T11:02:55;12.30;99.90
9915;DHT22;4996;48.746;9.174;2023-03-25T11:05:23;12.10;99.90
9915;DHT22;4996;48.746;9.174;2023-03-25T11:07:52;11.90;99.90
9915;DHT22;4996;48.746;9.174;2023-03-25T11:10:24;12.00;99.90
9915;DHT22;4996;48.746;9.174;2023-03-25T11:12:52;12.40;99.90
9915;DHT22;4996;48.746;9.174;2023-03-25T11:15:21;12.50;99.90
9915;DHT22;4996;48.746;9.174;2023-03-25T11:17:57;12.40;99.90
9915;DHT22;4996;48.746;9.174;2023-03-25T11:20:35;12.90;99.90
9915;DHT22;4996;48.746;9.174;2023-03-25T11:23:13;13.90;99.90
9915;DHT22;4996;48.746;9.174;2023-03-25T11:25:41;13.90;99.90
9915;DHT22;4996;48.746;9.174;2023-03-25T11:28:43;14.30;99.90
9915;DHT22;4996;48.746;9.174;2023-03-25T11:31:18;14.20;99.90
9915;DHT22;4996;48.746;9.174;2023-03-25T11:33:47;14.00;99.90
9915;DHT22;4996;48.746;9.174;2023-03-25T11:36:27;13.90;99.90
9915;DHT22;4996;48.746;9.174;2023-03-25T11:38:59;13.80;99.90
9915;DHT22;4996;48.746;9.174;2023-03-25T11:41:30;14.00;99.90
9915;DHT22;4996;48.746;9.174;2023-03-25T11:43:56;14.60;99.90
9915;DHT22;4996;48.746;9.174;2023-03-25T11:46:22;14.90;99.90
9915;DHT22;4996;48.746;9.174;2023-03-25T11:48:48;15.20;99.90
9915;DHT22;4996;48.746;9.174;2023-03-25T11:51:30;15.40;99.90
9915;DHT22;4996;48.746;9.174;2023-03-25T11:53:58;15.90;99.90
9915;DHT22;4996;48.746;9.174;2023-03-25T11:56:43;16.20;99.90
9915;DHT22;4996;48.746;9.174;2023-03-25T11:59:27;16.40;99.90
9915;DHT22;4996;48.746;9.174;2023-03-25T12:02:01;16.40;99.90
9915;DHT22;4996;48.746;9.174;2023-03-25T12:04:28;16.40;99.90
9915;DHT22;4996;48.746;9.174;2023-03-25T12:07:08;15.90;99.90
9915;DHT22;4996;48.746;9.174;2023-03-25T12:09:34;15.40;99.90
9915;DHT22;4996;48.746;9.174;2023-03-25T12:12:12;15.90;99.90
9915;DHT22;4996;48.746;9.174;2023-03-25T12:17:26;15.70;99.90
9915;DHT22;4996;48.746;9.174;2023-03-25T12:20:02;16.10;99.90
9915;DHT22;4996;48.746;9.174;2023-03-25T12:25:39;16.10;99.90
9915;DHT22;4996;48.746;9.174;2023-03-25T12:31:22;16.60;99.90
9915;DHT22;4996;48.746;9.174;2023-03-25T12:47:40;14.50;99.90
9915;DHT22;4996;48.746;9.174;2023-03-25T12:55:43;12.70;99.90
9915;DHT22;4996;48.746;9.174;2023-03-25T13:01:41;12.80;99.90
9915;DHT22;4996;48.746;9.174;2023-03-25T13:04:42;12.90;99.90
9915;DHT22;4996;48.746;9.174;2023-03-25T13:07:39;13.00;99.90
9915;DHT22;4996;48.746;9.174;2023-03-25T13:10:13;12.90;99.90
9915;DHT22;4996;48.746;9.174;2023-03-25T13:12:52;13.20;99.90
9915;DHT22;4996;48.746;9.174;2023-03-25T13:15:44;13.20;99.90
9915;DHT22;4996;48.746;9.174;2023-03-25T13:18:23;12.90;99.90
9915;DHT22;4996;48.746;9.174;2023-03-25T13:21:02;12.80;99.90
9915;DHT22;4996;48.746;9.174;2023-03-25T13:23:29;12.50;99.90
9915;DHT22;4996;48.746;9.174;2023-03-25T13:26:04;12.30;99.90
9915;DHT22;4996;48.746;9.174;2023-03-25T13:28:43;12.40;99.90
9915;DHT22;4996;48.746;9.174;2023-03-25T13:31:24;12.40;99.90
9915;DHT22;4996;48.746;9.174;2023-03-25T13:34:04;12.80;99.90
9915;DHT22;4996;48.746;9.174;2023-03-25T13:36:35;12.90;99.90
9915;DHT22;4996;48.746;9.174;2023-03-25T13:39:05;13.00;99.90
9915;DHT22;4996;48.746;9.174;2023-03-25T13:41:43;12.80;99.90
9915;DHT22;4996;48.746;9.174;2023-03-25T13:44:25;12.60;99.90
9915;DHT22;4996;48.746;9.174;2023-03-25T13:49:31;12.60;99.90
9915;DHT22;4996;48.746;9.174;2023-03-25T13:52:00;12.40;99.90
9915;DHT22;4996;48.746;9.174;2023-03-25T13:54:39;12.20;99.90
9915;DHT22;4996;48.746;9.174;2023-03-25T14:05:45;12.30;99.90
9915;DHT22;4996;48.746;9.174;2023-03-25T14:08:44;12.50;99.90
9915;DHT22;4996;48.746;9.174;2023-03-25T14:11:36;12.30;99.90
9915;DHT22;4996;48.746;9.174;2023-03-25T14:14:14;12.30;99.90
9915;DHT22;4996;48.746;9.174;2023-03-25T14:16:55;12.20;99.90
9915;DHT22;4996;48.746;9.174;2023-03-25T14:19:34;12.20;99.90
9915;DHT22;4996;48.746;9.174;2023-03-25T14:22:10;12.00;99.90
9915;DHT22;4996;48.746;9.174;2023-03-25T14:24:37;11.20;99.90
9915;DHT22;4996;48.746;9.174;2023-03-25T14:27:05;10.50;99.90
9915;DHT22;4996;48.746;9.174;2023-03-25T14:29:45;10.60;99.90
9915;DHT22;4996;48.746;9.174;2023-03-25T14:34:41;11.00;99.90
9915;DHT22;4996;48.746;9.174;2023-03-25T14:37:08;11.10;99.90
9915;DHT22;4996;48.746;9.174;2023-03-25T14:42:08;11.40;99.90
9915;DHT22;4996;48.746;9.174;2023-03-25T14:44:36;11.40;99.90
9915;DHT22;4996;48.746;9.174;2023-03-25T14:49:55;11.90;99.90
9915;DHT22;4996;48.746;9.174;2023-03-25T14:52:40;12.00;99.90
9915;DHT22;4996;48.746;9.174;2023-03-25T14:55:28;12.10;99.90
9915;DHT22;4996;48.746;9.174;2023-03-25T14:57:58;12.20;99.90
9915;DHT22;4996;48.746;9.174;2023-03-25T15:00:29;12.30;99.90
9915;DHT22;4996;48.746;9.174;2023-03-25T15:03:08;12.40;99.90
9915;DHT22;4996;48.746;9.174;2023-03-25T15:05:37;12.40;99.90
9915;DHT22;4996;48.746;9.174;2023-03-25T15:10:39;12.40;99.90
9915;DHT22;4996;48.746;9.174;2023-03-25T15:13:26;12.50;99.90
9915;DHT22;4996;48.746;9.174;2023-03-25T15:21:16;12.70;99.90
9915;DHT22;4996;48.746;9.174;2023-03-25T15:26:30;12.80;99.90
9915;DHT22;4996;48.746;9.174;2023-03-25T15:32:12;12.80;99.90
9915;DHT22;4996;48.746;9.174;2023-03-25T15:37:57;12.70;99.90
9915;DHT22;4996;48.746;9.174;2023-03-25T15:43:16;12.70;99.90
9915;DHT22;4996;48.746;9.174;2023-03-25T15:46:22;12.60;99.90
9915;DHT22;4996;48.746;9.174;2023-03-25T15:49:04;12.40;99.90
9915;DHT22;4996;48.746;9.174;2023-03-25T15:51:56;12.20;99.90
9915;DHT22;4996;48.746;9.174;2023-03-25T15:54:45;12.20;99.90
9915;DHT22;4996;48.746;9.174;2023-03-25T15:57:32;12.20;99.90
9915;DHT22;4996;48.746;9.174;2023-03-25T16:03:10;12.30;99.90
9915;DHT22;4996;48.746;9.174;2023-03-25T16:05:43;12.20;99.90
9915;DHT22;4996;48.746;9.174;2023-03-25T16:08:14;12.20;99.90
9915;DHT22;4996;48.746;9.174;2023-03-25T16:10:41;12.40;99.90
9915;DHT22;4996;48.746;9.174;2023-03-25T16:13:12;12.50;99.90
9915;DHT22;4996;48.746;9.174;2023-03-25T16:15:41;12.50;99.90
9915;DHT22;4996;48.746;9.174;2023-03-25T16:18:10;12.60;99.90
9915;DHT22;4996;48.746;9.174;2023-03-25T16:20:38;12.50;99.90
9915;DHT22;4996;48.746;9.174;2023-03-25T16:23:05;12.50;99.90
9915;DHT22;4996;48.746;9.174;2023-03-25T16:25:34;12.30;99.90
9915;DHT22;4996;48.746;9.174;2023-03-25T16:28:05;12.10;99.90
9915;DHT22;4996;48.746;9.174;2023-03-25T16:30:39;12.20;99.90
9915;DHT22;4996;48.746;9.174;2023-03-25T16:35:36;12.00;99.90
9915;DHT22;4996;48.746;9.174;2023-03-25T16:38:03;12.10;99.90
9915;DHT22;4996;48.746;9.174;2023-03-25T16:40:38;11.90;99.90
9915;DHT22;4996;48.746;9.174;2023-03-25T16:43:18;12.00;99.90
9915;DHT22;4996;48.746;9.174;2023-03-25T16:45:45;11.90;99.90
9915;DHT22;4996;48.746;9.174;2023-03-25T16:48:21;11.90;99.90
9915;DHT22;4996;48.746;9.174;2023-03-25T16:50:48;11.90;99.90
9915;DHT22;4996;48.746;9.174;2023-03-25T16:53:17;11.90;99.90
9915;DHT22;4996;48.746;9.174;2023-03-25T16:55:47;12.00;99.90
9915;DHT22;4996;48.746;9.174;2023-03-25T16:58:20;12.00;99.90
9915;DHT22;4996;48.746;9.174;2023-03-25T17:00:49;12.20;99.90
9915;DHT22;4996;48.746;9.174;2023-03-25T17:03:18;12.00;99.90
9915;DHT22;4996;48.746;9.174;2023-03-25T17:06:09;11.90;99.90
9915;DHT22;4996;48.746;9.174;2023-03-25T17:08:37;11.90;99.90
9915;DHT22;4996;48.746;9.174;2023-03-25T17:11:07;12.00;99.90
9915;DHT22;4996;48.746;9.174;2023-03-25T17:13:47;12.00;99.90
9915;DHT22;4996;48.746;9.174;2023-03-25T17:16:19;12.10;99.90
9915;DHT22;4996;48.746;9.174;2023-03-25T17:18:50;12.00;99.90
9915;DHT22;4996;48.746;9.174;2023-03-25T17:21:23;11.90;99.90
9915;DHT22;4996;48.746;9.174;2023-03-25T17:23:52;11.80;99.90
9915;DHT22;4996;48.746;9.174;2023-03-25T17:26:19;11.70;99.90
9915;DHT22;4996;48.746;9.174;2023-03-25T17:31:37;11.70;99.90
9915;DHT22;4996;48.746;9.174;2023-03-25T17:34:06;11.90;99.90
9915;DHT22;4996;48.746;9.174;2023-03-25T17:36:35;12.00;99.90
9915;DHT22;4996;48.746;9.174;2023-03-25T17:39:03;12.00;99.90
9915;DHT22;4996;48.746;9.174;2023-03-25T17:41:35;11.80;99.90
9915;DHT22;4996;48.746;9.174;2023-03-25T17:44:02;11.80;99.90
9915;DHT22;4996;48.746;9.174;2023-03-25T17:46:29;11.90;99.90
9915;DHT22;4996;48.746;9.174;2023-03-25T17:48:55;11.80;99.90
9915;DHT22;4996;48.746;9.174;2023-03-25T17:51:26;11.90;99.90
9915;DHT22;4996;48.746;9.174;2023-03-25T17:53:52;11.90;99.90
9915;DHT22;4996;48.746;9.174;2023-03-25T17:56:22;11.90;99.90
9915;DHT22;4996;48.746;9.174;2023-03-25T17:58:59;11.80;99.90
9915;DHT22;4996;48.746;9.174;2023-03-25T18:01:26;11.80;99.90
9915;DHT22;4996;48.746;9.174;2023-03-25T18:03:52;11.90;99.90
9915;DHT22;4996;48.746;9.174;2023-03-25T18:06:17;11.90;99.90
9915;DHT22;4996;48.746;9.174;2023-03-25T18:08:43;11.90;99.90
9915;DHT22;4996;48.746;9.174;2023-03-25T18:11:12;11.60;99.90
9915;DHT22;4996;48.746;9.174;2023-03-25T18:13:38;11.60;99.90
9915;DHT22;4996;48.746;9.174;2023-03-25T18:16:10;11.70;99.90
9915;DHT22;4996;48.746;9.174;2023-03-25T18:18:36;11.70;99.90
9915;DHT22;4996;48.746;9.174;2023-03-25T18:21:03;11.40;99.90
9915;DHT22;4996;48.746;9.174;2023-03-25T18:23:29;11.40;99.90
9915;DHT22;4996;48.746;9.174;2023-03-25T18:25:55;11.50;99.90
9915;DHT22;4996;48.746;9.174;2023-03-25T18:28:22;11.50;99.90
9915;DHT22;4996;48.746;9.174;2023-03-25T18:30:54;11.30;99.90
9915;DHT22;4996;48.746;9.174;2023-03-25T18:33:21;11.30;99.90
9915;DHT22;4996;48.746;9.174;2023-03-25T18:35:48;11.00;99.90
9915;DHT22;4996;48.746;9.174;2023-03-25T18:38:22;11.00;99.90
9915;DHT22;4996;48.746;9.174;2023-03-25T18:40:49;11.00;99.90
9915;DHT22;4996;48.746;9.174;2023-03-25T18:43:15;10.80;99.90
9915;DHT22;4996;48.746;9.174;2023-03-25T18:45:41;10.50;99.90
9915;DHT22;4996;48.746;9.174;2023-03-25T18:48:11;10.30;99.90
9915;DHT22;4996;48.746;9.174;2023-03-25T18:50:39;10.40;99.90
9915;DHT22;4996;48.746;9.174;2023-03-25T18:53:06;10.50;99.90
9915;DHT22;4996;48.746;9.174;2023-03-25T18:55:33;10.40;99.90